Terminal Aerodrome Forecast
Issued by NWS North Platte, NE

Home | Current Version | Previous Version | Text Only | Print | Product List | Glossary On
Versions: 1 2 3 4 5 6 7 8 9 10 11 12 13
000
FTUS43 KLBF 222340 AAA
TAFVTN
TAF AMD
KVTN 222340Z 2300/2324 33015KT P6SM OVC250
     FM230300 36010KT P6SM VCSH SCT100 OVC200
     FM230600 35010KT P6SM VCSH BKN060 BKN100
     FM230900 01008KT P6SM BKN025 OVC040
     FM231200 01007KT P6SM -SHRA SCT010 OVC025
     FM231800 02008KT 5SM -SHRA BKN008 OVC010=

USA.gov is the U.S. government's official web portal to all federal, state and local government web resources and services.